createdAt,value
2022-10-27T00:00:06.987Z,12.60
2022-10-27T00:02:33.525Z,15.10
2022-10-27T00:05:00.063Z,14.82
2022-10-27T00:07:26.589Z,10.32
2022-10-27T00:09:57.279Z,15.98
2022-10-27T00:12:23.770Z,12.88
2022-10-27T00:14:51.384Z,11.90
2022-10-27T00:17:20.333Z,14.13
2022-10-27T00:19:46.840Z,10.25
2022-10-27T00:22:16.033Z,11.00
2022-10-27T00:24:45.030Z,15.82
2022-10-27T00:27:11.669Z,14.93
2022-10-27T00:29:41.208Z,10.05
2022-10-27T00:34:36.173Z,15.82
2022-10-27T00:37:05.063Z,13.48
2022-10-27T00:39:31.603Z,12.27
2022-10-27T00:41:58.348Z,14.98
2022-10-27T00:44:34.792Z,9.98
2022-10-27T00:47:33.756Z,17.37
2022-10-27T00:50:23.115Z,9.45
2022-10-27T00:52:57.826Z,12.65
2022-10-27T00:55:38.140Z,11.38
2022-10-27T00:58:11.313Z,9.57
2022-10-27T01:00:41.340Z,10.88
2022-10-27T01:03:10.138Z,14.30
2022-10-27T01:05:37.119Z,13.77
2022-10-27T01:08:05.434Z,9.00
2022-10-27T01:10:32.053Z,16.00
2022-10-27T01:13:00.187Z,15.50
2022-10-27T01:15:49.897Z,14.75
2022-10-27T01:18:26.226Z,15.57
2022-10-27T01:21:31.800Z,15.38
2022-10-27T01:24:43.335Z,9.57
2022-10-27T01:27:36.245Z,15.00
2022-10-27T01:30:10.994Z,12.52
2022-10-27T01:33:06.615Z,12.23
2022-10-27T01:36:02.749Z,11.15
2022-10-27T01:38:40.247Z,12.82
2022-10-27T01:41:20.448Z,12.98
2022-10-27T01:43:50.708Z,16.13
2022-10-27T01:46:17.998Z,14.00
2022-10-27T01:48:45.735Z,11.57
2022-10-27T01:51:13.104Z,13.02
2022-10-27T01:53:51.889Z,11.02
2022-10-27T01:57:00.279Z,17.38
2022-10-27T01:59:42.517Z,11.27
2022-10-27T02:02:28.634Z,10.85
2022-10-27T02:05:06.778Z,15.00
2022-10-27T02:07:44.582Z,9.85
2022-10-27T02:10:21.430Z,13.02
2022-10-27T02:12:51.736Z,14.63
2022-10-27T02:15:43.637Z,7.43
2022-10-27T02:18:17.337Z,10.40
2022-10-27T02:20:48.229Z,10.93
2022-10-27T02:23:17.519Z,12.00
2022-10-27T02:26:13.825Z,12.52
2022-10-27T02:28:52.482Z,13.10
2022-10-27T02:31:23.034Z,12.88
2022-10-27T02:33:50.426Z,9.80
2022-10-27T02:36:17.870Z,11.18
2022-10-27T02:38:44.376Z,12.20
2022-10-27T02:41:10.894Z,14.50
2022-10-27T02:43:37.390Z,19.30
2022-10-27T02:46:03.931Z,15.80
2022-10-27T02:48:30.410Z,10.45
2022-10-27T02:50:56.896Z,12.77
2022-10-27T02:53:23.433Z,11.52
2022-10-27T02:55:49.951Z,14.57
2022-10-27T02:58:19.841Z,14.98
2022-10-27T03:00:46.424Z,11.38
2022-10-27T03:03:15.228Z,21.75
2022-10-27T03:05:45.497Z,12.10
2022-10-27T03:08:15.594Z,16.52
2022-10-27T03:10:43.871Z,14.15
2022-10-27T03:13:10.750Z,14.05
2022-10-27T03:15:37.461Z,13.68
2022-10-27T03:18:04.726Z,9.55
2022-10-27T03:20:31.206Z,18.10
2022-10-27T03:22:57.975Z,13.88
2022-10-27T03:25:24.532Z,11.30
2022-10-27T03:27:53.824Z,14.70
2022-10-27T03:30:23.004Z,9.95
2022-10-27T03:32:51.576Z,12.35
2022-10-27T03:35:19.982Z,12.00
2022-10-27T03:37:46.516Z,13.90
2022-10-27T03:40:14.169Z,12.15
2022-10-27T03:42:43.802Z,11.93
2022-10-27T03:47:46.981Z,14.00
2022-10-27T03:50:13.494Z,14.77
2022-10-27T03:52:42.184Z,11.98
2022-10-27T03:55:11.660Z,12.25
2022-10-27T04:00:08.292Z,12.88
2022-10-27T04:02:34.767Z,11.00
2022-10-27T04:05:04.794Z,13.23
2022-10-27T04:07:31.339Z,14.77
2022-10-27T04:09:57.833Z,10.15
2022-10-27T04:12:26.708Z,15.40
2022-10-27T04:14:55.753Z,14.05
2022-10-27T04:17:22.395Z,10.48
2022-10-27T04:19:51.334Z,12.13
2022-10-27T04:22:17.938Z,17.20
2022-10-27T04:24:46.710Z,13.48
2022-10-27T04:29:39.792Z,13.00
2022-10-27T04:32:11.829Z,12.48
2022-10-27T04:34:38.595Z,11.48
2022-10-27T04:37:05.187Z,11.88
2022-10-27T04:39:34.952Z,12.15
2022-10-27T04:42:02.075Z,18.45
2022-10-27T04:44:28.718Z,12.77
2022-10-27T04:46:58.227Z,11.95
2022-10-27T04:51:54.208Z,10.48
2022-10-27T04:56:50.835Z,15.52
2022-10-27T04:59:17.322Z,16.92
2022-10-27T05:01:43.943Z,13.88
2022-10-27T05:04:19.502Z,12.35
2022-10-27T05:06:46.058Z,17.27
2022-10-27T05:09:17.850Z,12.40
2022-10-27T05:11:48.845Z,15.07
2022-10-27T05:14:15.339Z,12.98
2022-10-27T05:16:42.896Z,15.15
2022-10-27T05:19:10.474Z,12.35
2022-10-27T05:21:40.273Z,15.00
2022-10-27T05:24:06.993Z,12.50
2022-10-27T05:26:37.027Z,11.25
2022-10-27T05:29:04.828Z,15.43
2022-10-27T05:31:31.289Z,12.52
2022-10-27T05:36:27.200Z,13.93
2022-10-27T05:38:53.758Z,11.25
2022-10-27T05:41:20.253Z,11.93
2022-10-27T05:43:48.916Z,14.15
2022-10-27T05:46:15.363Z,9.30
2022-10-27T05:48:44.940Z,12.48
2022-10-27T05:53:44.378Z,13.73
2022-10-27T05:56:10.846Z,13.70
2022-10-27T05:58:37.270Z,14.05
2022-10-27T06:01:03.790Z,14.45
2022-10-27T06:03:30.408Z,14.75
2022-10-27T06:05:57.202Z,11.95
2022-10-27T06:08:33.442Z,11.63
2022-10-27T06:11:01.452Z,13.48
2022-10-27T06:13:27.913Z,13.25
2022-10-27T06:15:54.355Z,12.88
2022-10-27T06:18:20.818Z,13.25
2022-10-27T06:20:49.502Z,16.65
2022-10-27T06:23:17.941Z,14.75
2022-10-27T06:25:44.397Z,12.90
2022-10-27T06:28:10.861Z,14.43
2022-10-27T06:30:45.125Z,13.10
2022-10-27T06:33:11.579Z,13.68
2022-10-27T06:35:38.027Z,14.90
2022-10-27T06:38:04.570Z,12.55
2022-10-27T06:40:31.028Z,18.55
2022-10-27T06:43:13.203Z,13.57
2022-10-27T06:45:40.749Z,14.68
2022-10-27T06:48:10.129Z,11.82
2022-10-27T06:50:36.565Z,12.18
2022-10-27T06:53:03.805Z,13.63
2022-10-27T06:55:31.401Z,16.20
2022-10-27T06:57:58.234Z,12.05
2022-10-27T07:00:25.243Z,14.88
2022-10-27T07:02:54.236Z,12.65
2022-10-27T07:05:20.990Z,15.93
2022-10-27T07:07:48.910Z,18.88
2022-10-27T07:10:16.402Z,16.85
2022-10-27T07:12:53.520Z,16.88
2022-10-27T07:15:20.365Z,10.95
2022-10-27T07:17:46.909Z,11.52
2022-10-27T07:20:13.409Z,11.95
2022-10-27T07:22:41.356Z,13.30
2022-10-27T07:25:08.850Z,17.25
2022-10-27T07:27:35.306Z,10.02
2022-10-27T07:30:02.082Z,12.68
2022-10-27T07:32:28.578Z,17.08
2022-10-27T07:34:58.076Z,13.80
2022-10-27T07:39:51.026Z,14.45
2022-10-27T07:42:20.345Z,15.07
2022-10-27T07:44:46.860Z,9.90
2022-10-27T07:47:14.857Z,10.65
2022-10-27T07:49:41.359Z,13.38
2022-10-27T07:52:07.873Z,13.45
2022-10-27T07:54:35.154Z,13.38
2022-10-27T07:57:01.628Z,13.10
2022-10-27T07:59:28.162Z,15.77
2022-10-27T08:01:54.823Z,10.32
2022-10-27T08:04:21.414Z,9.60
2022-10-27T08:06:50.396Z,13.73
2022-10-27T08:09:19.252Z,14.52
2022-10-27T08:11:46.910Z,15.82
2022-10-27T08:14:13.492Z,12.57
2022-10-27T08:16:40.078Z,13.35
2022-10-27T08:19:06.649Z,9.73
2022-10-27T08:21:35.387Z,9.55
2022-10-27T08:24:04.119Z,12.02
2022-10-27T08:26:31.390Z,9.05
2022-10-27T08:28:58.921Z,12.00
2022-10-27T08:31:25.425Z,13.57
2022-10-27T08:33:52.997Z,13.65
2022-10-27T08:36:20.501Z,16.45
2022-10-27T08:38:49.604Z,12.07
2022-10-27T08:41:37.007Z,7.65
2022-10-27T08:44:25.098Z,12.85
2022-10-27T08:46:59.297Z,7.82
2022-10-27T08:49:36.887Z,11.02
2022-10-27T08:52:33.689Z,9.73
2022-10-27T08:55:29.562Z,9.70
2022-10-27T08:58:14.127Z,13.82
2022-10-27T09:01:09.583Z,12.07
2022-10-27T09:03:44.929Z,9.95
2022-10-27T09:06:26.385Z,10.68
2022-10-27T09:09:24.351Z,14.60
2022-10-27T09:12:01.732Z,11.85
2022-10-27T09:14:59.005Z,11.60
2022-10-27T09:17:33.560Z,11.80
2022-10-27T09:20:06.479Z,8.48
2022-10-27T09:25:20.836Z,13.77
2022-10-27T09:27:52.743Z,10.15
2022-10-27T09:30:20.637Z,12.38
2022-10-27T09:32:53.691Z,14.68
2022-10-27T09:35:26.594Z,11.82
2022-10-27T09:37:53.825Z,15.27
2022-10-27T09:40:23.424Z,11.85
2022-10-27T09:45:29.550Z,11.02
2022-10-27T09:48:04.334Z,8.57
2022-10-27T09:50:40.857Z,11.38
2022-10-27T09:53:39.197Z,17.50
2022-10-27T09:56:09.359Z,10.57
2022-10-27T09:59:03.162Z,8.45
2022-10-27T10:01:35.896Z,13.80
2022-10-27T10:04:29.965Z,9.73
2022-10-27T10:06:59.247Z,8.38
2022-10-27T10:09:39.462Z,9.38
2022-10-27T10:12:15.382Z,9.90
2022-10-27T10:15:12.693Z,9.95
2022-10-27T10:17:51.905Z,10.57
2022-10-27T10:20:30.364Z,12.70
2022-10-27T10:22:57.165Z,12.43
2022-10-27T10:25:36.291Z,8.55
2022-10-27T10:28:11.613Z,14.98
2022-10-27T10:30:48.938Z,13.52
2022-10-27T10:33:16.810Z,12.57
2022-10-27T10:35:43.418Z,10.13
2022-10-27T10:38:37.242Z,9.38
2022-10-27T10:41:11.818Z,11.55
2022-10-27T10:43:39.365Z,9.23
2022-10-27T10:46:11.669Z,15.10
2022-10-27T10:48:50.300Z,13.52
2022-10-27T10:51:35.346Z,16.10
2022-10-27T10:54:06.998Z,14.27
2022-10-27T10:56:35.994Z,12.57
2022-10-27T10:59:12.364Z,10.90
2022-10-27T11:01:41.875Z,13.45
2022-10-27T11:04:12.348Z,10.55
2022-10-27T11:06:52.248Z,12.75
2022-10-27T11:09:18.729Z,14.30
2022-10-27T11:11:47.659Z,9.77
2022-10-27T11:14:18.742Z,11.13
2022-10-27T11:16:58.637Z,14.68
2022-10-27T11:19:36.278Z,10.10
2022-10-27T11:22:15.557Z,11.15
2022-10-27T11:25:17.743Z,15.00
2022-10-27T11:27:57.142Z,11.60
2022-10-27T11:30:25.599Z,10.38
2022-10-27T11:33:11.582Z,10.93
2022-10-27T11:35:37.910Z,12.63
2022-10-27T11:41:30.066Z,16.00
2022-10-27T11:44:21.303Z,14.50
2022-10-27T11:47:10.298Z,8.68
2022-10-27T11:49:52.753Z,17.08
2022-10-27T11:52:38.536Z,13.05
2022-10-27T11:55:08.494Z,13.13
2022-10-27T11:58:10.245Z,13.60
2022-10-27T12:00:45.400Z,13.07
2022-10-27T12:03:47.275Z,15.10
2022-10-27T12:06:25.448Z,10.02
2022-10-27T12:09:29.785Z,10.70
2022-10-27T12:12:14.673Z,16.25
2022-10-27T12:15:00.298Z,9.77
2022-10-27T12:17:44.797Z,12.30
2022-10-27T12:20:16.231Z,8.93
2022-10-27T12:22:55.512Z,13.10
2022-10-27T12:26:03.111Z,18.27
2022-10-27T12:28:32.237Z,12.75
2022-10-27T12:31:02.577Z,12.48
2022-10-27T12:33:38.697Z,15.02
2022-10-27T12:36:23.892Z,10.82
2022-10-27T12:39:19.109Z,13.10
2022-10-27T12:42:06.682Z,10.60
2022-10-27T12:44:59.015Z,9.15
2022-10-27T12:47:54.067Z,18.85
2022-10-27T12:50:58.709Z,10.57
2022-10-27T12:53:40.458Z,14.90
2022-10-27T12:56:34.473Z,16.95
2022-10-27T12:59:35.356Z,18.50
2022-10-27T13:02:14.029Z,15.85
2022-10-27T13:04:59.947Z,10.90
2022-10-27T13:07:42.766Z,10.25
2022-10-27T13:10:52.337Z,13.85
2022-10-27T13:13:48.941Z,13.93
2022-10-27T13:16:26.834Z,14.80
2022-10-27T13:19:24.569Z,12.80
2022-10-27T13:22:02.013Z,9.75
2022-10-27T13:24:43.619Z,16.48
2022-10-27T13:27:26.970Z,16.88
2022-10-27T13:30:02.345Z,16.33
2022-10-27T13:32:38.090Z,13.35
2022-10-27T13:35:04.501Z,13.23
2022-10-27T13:37:55.484Z,9.15
2022-10-27T13:40:22.242Z,13.00
2022-10-27T13:42:53.995Z,12.98
2022-10-27T13:45:34.808Z,9.48
2022-10-27T13:48:07.358Z,18.73
2022-10-27T13:50:44.383Z,12.75
2022-10-27T13:53:19.866Z,13.25
2022-10-27T13:55:49.257Z,13.85
2022-10-27T13:58:18.737Z,13.90
2022-10-27T14:01:22.958Z,15.60
2022-10-27T14:04:13.624Z,15.32
2022-10-27T14:06:45.711Z,10.43
2022-10-27T14:09:21.885Z,14.57
2022-10-27T14:11:50.135Z,17.42
2022-10-27T14:14:40.783Z,13.38
2022-10-27T14:17:23.682Z,14.48
2022-10-27T14:20:16.636Z,15.77
2022-10-27T14:22:49.309Z,20.95
2022-10-27T14:25:26.684Z,15.00
2022-10-27T14:28:20.557Z,13.00
2022-10-27T14:31:07.060Z,10.95
2022-10-27T14:33:36.632Z,16.15
2022-10-27T14:38:36.971Z,11.55
2022-10-27T14:41:12.518Z,18.88
2022-10-27T14:43:53.270Z,23.30
2022-10-27T14:46:28.632Z,12.35
2022-10-27T14:49:07.603Z,17.08
2022-10-27T14:51:38.925Z,11.50
2022-10-27T14:56:38.229Z,18.05
2022-10-27T14:59:18.202Z,15.55
2022-10-27T15:01:45.105Z,14.02
2022-10-27T15:04:32.635Z,13.18
2022-10-27T15:07:03.226Z,16.35
2022-10-27T15:09:37.733Z,13.18
2022-10-27T15:12:06.930Z,13.95
2022-10-27T15:14:34.849Z,15.20
2022-10-27T15:17:01.718Z,10.80
2022-10-27T15:19:28.267Z,14.23
2022-10-27T15:21:55.235Z,13.10
2022-10-27T15:24:26.189Z,14.02
2022-10-27T15:26:54.433Z,12.15
2022-10-27T15:29:21.976Z,14.00
2022-10-27T15:31:57.963Z,15.60
2022-10-27T15:34:33.871Z,15.65
2022-10-27T15:37:34.870Z,12.35
2022-10-27T15:40:28.886Z,13.30
2022-10-27T15:42:56.662Z,15.20
2022-10-27T15:45:35.077Z,10.20
2022-10-27T15:48:04.844Z,17.98
2022-10-27T15:50:39.496Z,15.63
2022-10-27T15:53:20.461Z,14.68
2022-10-27T15:56:07.518Z,19.60
2022-10-27T15:58:39.232Z,17.23
2022-10-27T16:01:05.816Z,14.90
2022-10-27T16:03:43.610Z,15.77
2022-10-27T16:06:25.529Z,16.52
2022-10-27T16:08:53.347Z,12.07
2022-10-27T16:11:21.647Z,13.60
2022-10-27T16:13:50.197Z,12.55
2022-10-27T16:16:16.854Z,15.93
2022-10-27T16:18:43.367Z,17.15
2022-10-27T16:24:19.015Z,13.75
2022-10-27T16:26:47.169Z,14.82
2022-10-27T16:29:19.634Z,14.40
2022-10-27T16:31:47.653Z,15.68
2022-10-27T16:34:23.693Z,17.48
2022-10-27T16:37:43.553Z,18.65
2022-10-27T16:40:18.167Z,14.65
2022-10-27T16:42:49.089Z,16.77
2022-10-27T16:45:23.431Z,15.65
2022-10-27T16:48:04.497Z,12.05
2022-10-27T16:50:31.238Z,18.73
2022-10-27T16:52:57.724Z,17.63
2022-10-27T16:55:24.175Z,18.23
2022-10-27T16:57:50.896Z,18.70
2022-10-27T17:00:18.030Z,16.48
2022-10-27T17:02:44.624Z,13.82
2022-10-27T17:05:18.789Z,17.15
2022-10-27T17:07:46.230Z,14.02
2022-10-27T17:10:16.532Z,17.27
2022-10-27T17:12:43.425Z,17.75
2022-10-27T17:15:10.156Z,17.10
2022-10-27T17:17:36.676Z,16.77
2022-10-27T17:20:03.335Z,13.70
2022-10-27T17:22:29.818Z,17.25
2022-10-27T17:24:56.362Z,17.20
2022-10-27T17:27:22.828Z,19.88
2022-10-27T17:29:49.275Z,16.10
2022-10-27T17:32:16.314Z,14.40
2022-10-27T17:34:43.916Z,14.73
2022-10-27T17:37:11.503Z,15.10
2022-10-27T17:39:37.984Z,18.00
2022-10-27T17:42:05.593Z,19.02
2022-10-27T17:44:32.113Z,16.42
2022-10-27T17:46:58.528Z,19.33
2022-10-27T17:49:25.004Z,17.35
2022-10-27T17:51:51.612Z,17.85
2022-10-27T17:54:18.130Z,25.52
2022-10-27T17:56:44.624Z,18.40
2022-10-27T17:59:15.251Z,18.35
2022-10-27T18:01:42.386Z,15.00
2022-10-27T18:04:11.833Z,18.25
2022-10-27T18:06:42.127Z,19.10
2022-10-27T18:09:10.439Z,19.23
2022-10-27T18:11:38.415Z,17.35
2022-10-27T18:14:10.681Z,17.08
2022-10-27T18:16:42.447Z,18.17
2022-10-27T18:19:10.854Z,19.48
2022-10-27T18:21:42.450Z,17.05
2022-10-27T18:24:13.199Z,13.20
2022-10-27T18:26:41.698Z,20.70
2022-10-27T18:29:10.614Z,16.60
2022-10-27T18:31:38.616Z,18.55
2022-10-27T18:34:06.985Z,16.33
2022-10-27T18:36:34.158Z,18.08
2022-10-27T18:39:01.810Z,21.10
2022-10-27T18:41:31.729Z,16.08
2022-10-27T18:43:58.244Z,17.63
2022-10-27T18:46:25.285Z,17.48
2022-10-27T18:48:58.949Z,15.68
2022-10-27T18:51:27.510Z,16.80
2022-10-27T18:53:56.169Z,19.98
2022-10-27T18:56:23.248Z,15.63
2022-10-27T18:58:54.064Z,18.23
2022-10-27T19:01:21.489Z,15.77
2022-10-27T19:03:52.803Z,19.00
2022-10-27T19:06:19.602Z,18.88
2022-10-27T19:08:46.058Z,21.42
2022-10-27T19:11:38.731Z,17.40
2022-10-27T19:14:05.217Z,20.63
2022-10-27T19:16:31.763Z,20.58
2022-10-27T19:18:59.143Z,18.50
2022-10-27T19:21:25.874Z,17.40
2022-10-27T19:23:57.946Z,17.88
2022-10-27T19:26:27.294Z,21.27
2022-10-27T19:28:55.766Z,20.90
2022-10-27T19:31:25.667Z,18.30
2022-10-27T19:33:52.572Z,19.65
2022-10-27T19:36:30.817Z,17.73
2022-10-27T19:38:59.006Z,20.58
2022-10-27T19:41:29.301Z,19.90
2022-10-27T19:43:56.803Z,24.15
2022-10-27T19:46:25.448Z,16.88
2022-10-27T19:48:55.241Z,17.70
2022-10-27T19:51:24.778Z,17.48
2022-10-27T19:56:19.607Z,17.63
2022-10-27T19:58:50.984Z,22.00
2022-10-27T20:01:20.250Z,19.35
2022-10-27T20:03:47.625Z,18.90
2022-10-27T20:06:14.482Z,16.95
2022-10-27T20:08:42.225Z,23.33
2022-10-27T20:11:11.003Z,19.55
2022-10-27T20:13:37.940Z,17.52
2022-10-27T20:16:10.470Z,18.30
2022-10-27T20:18:36.934Z,19.85
2022-10-27T20:21:03.526Z,21.65
2022-10-27T20:23:30.487Z,18.83
2022-10-27T20:26:27.875Z,18.85
2022-10-27T20:28:51.390Z,18.55
2022-10-27T20:31:18.128Z,20.98
2022-10-27T20:33:44.577Z,22.75
2022-10-27T20:36:15.206Z,18.80
2022-10-27T20:38:43.386Z,19.60
2022-10-27T20:41:15.952Z,20.15
2022-10-27T20:43:42.640Z,23.63
2022-10-27T20:46:09.490Z,20.27
2022-10-27T20:48:37.097Z,23.05
2022-10-27T20:51:10.522Z,23.42
2022-10-27T20:53:37.642Z,20.60
2022-10-27T20:56:05.126Z,18.38
2022-10-27T20:58:31.733Z,15.32
2022-10-27T21:01:16.876Z,16.33
2022-10-27T21:03:43.966Z,17.75
2022-10-27T21:06:11.794Z,16.15
2022-10-27T21:08:38.325Z,19.08
2022-10-27T21:11:05.432Z,19.38
2022-10-27T21:13:32.341Z,22.75
2022-10-27T21:15:59.834Z,19.67
2022-10-27T21:18:26.908Z,20.20
2022-10-27T21:20:53.414Z,20.25
2022-10-27T21:23:19.990Z,21.85
2022-10-27T21:25:46.568Z,22.25
2022-10-27T21:28:13.122Z,23.00
2022-10-27T21:30:39.582Z,24.63
2022-10-27T21:33:06.198Z,17.52
2022-10-27T21:35:32.786Z,23.70
2022-10-27T21:38:00.939Z,19.88
2022-10-27T21:40:27.448Z,18.40
2022-10-27T21:42:55.995Z,20.98
2022-10-27T21:45:23.450Z,17.67
2022-10-27T21:47:50.284Z,17.63
2022-10-27T21:50:17.917Z,19.55
2022-10-27T21:52:45.491Z,19.40
2022-10-27T21:55:12.037Z,17.23
2022-10-27T21:57:38.558Z,20.88
2022-10-27T22:00:05.907Z,19.95
2022-10-27T22:02:34.774Z,19.10
2022-10-27T22:05:01.354Z,22.55
2022-10-27T22:07:28.027Z,17.48
2022-10-27T22:09:54.485Z,17.33
2022-10-27T22:12:21.018Z,18.33
2022-10-27T22:14:47.476Z,23.92
2022-10-27T22:17:13.992Z,21.80
2022-10-27T22:19:40.581Z,19.17
2022-10-27T22:22:09.183Z,19.67
2022-10-27T22:24:35.610Z,18.83
2022-10-27T22:27:03.158Z,18.30
2022-10-27T22:29:29.670Z,19.40
2022-10-27T22:31:56.239Z,18.50
2022-10-27T22:34:22.748Z,18.23
2022-10-27T22:36:49.284Z,18.23
2022-10-27T22:39:15.900Z,21.50
2022-10-27T22:41:42.442Z,20.50
2022-10-27T22:44:08.948Z,21.42
2022-10-27T22:46:36.031Z,18.13
2022-10-27T22:49:03.403Z,20.10
2022-10-27T22:51:30.001Z,17.40
2022-10-27T22:53:57.626Z,17.75
2022-10-27T22:56:25.799Z,19.45
2022-10-27T22:58:54.958Z,23.13
2022-10-27T23:01:27.623Z,15.27
2022-10-27T23:03:56.731Z,15.43
2022-10-27T23:06:24.888Z,21.92
2022-10-27T23:08:53.583Z,21.98
2022-10-27T23:11:21.020Z,22.77
2022-10-27T23:13:47.608Z,19.23
2022-10-27T23:16:14.520Z,17.27
2022-10-27T23:18:41.435Z,20.95
2022-10-27T23:21:12.482Z,17.75
2022-10-27T23:23:39.017Z,21.65
2022-10-27T23:26:05.782Z,20.92
2022-10-27T23:28:32.450Z,16.92
2022-10-27T23:31:03.206Z,21.63
2022-10-27T23:33:29.847Z,18.58
2022-10-27T23:36:01.392Z,19.08
2022-10-27T23:38:28.707Z,25.50
2022-10-27T23:40:57.002Z,20.63
2022-10-27T23:43:24.235Z,21.13
2022-10-27T23:45:58.262Z,22.52
2022-10-27T23:48:24.708Z,19.55
2022-10-27T23:50:51.154Z,15.20
2022-10-27T23:53:17.629Z,17.00
2022-10-27T23:55:44.112Z,20.85
2022-10-27T23:58:10.562Z,22.33
